createdAt,value
2023-05-13T00:04:13.348Z,7.35
2023-05-13T00:10:55.702Z,6.53
2023-05-13T00:17:38.040Z,6.82
2023-05-13T00:24:20.627Z,6.93
2023-05-13T00:31:03.505Z,6.82
2023-05-13T00:37:45.692Z,6.85
2023-05-13T00:44:28.546Z,6.82
2023-05-13T00:51:11.014Z,6.10
2023-05-13T00:57:53.280Z,6.82
2023-05-13T01:05:05.535Z,6.95
2023-05-13T01:11:53.424Z,6.93
2023-05-13T01:18:47.812Z,8.35
2023-05-13T01:25:30.926Z,6.78
2023-05-13T01:32:14.127Z,5.78
2023-05-13T01:38:57.408Z,6.82
2023-05-13T01:45:42.639Z,7.55
2023-05-13T01:52:26.608Z,7.40
2023-05-13T01:59:11.035Z,7.10
2023-05-13T02:05:53.339Z,6.45
2023-05-13T02:12:35.809Z,6.38
2023-05-13T02:19:19.925Z,5.47
2023-05-13T02:26:04.291Z,6.07
2023-05-13T02:32:47.090Z,6.32
2023-05-13T02:39:29.389Z,5.68
2023-05-13T02:46:13.503Z,5.83
2023-05-13T02:52:55.874Z,6.32
2023-05-13T02:59:39.460Z,5.78
2023-05-13T03:06:21.872Z,5.55
2023-05-13T03:13:04.576Z,5.15
2023-05-13T03:19:46.814Z,6.13
2023-05-13T03:26:30.132Z,5.07
2023-05-13T03:33:12.615Z,5.32
2023-05-13T03:39:55.332Z,5.15
2023-05-13T03:46:37.841Z,4.95
2023-05-13T03:53:21.042Z,4.70
2023-05-13T04:00:04.873Z,4.97
2023-05-13T04:06:56.881Z,5.75
2023-05-13T04:13:40.848Z,5.35
2023-05-13T04:20:23.453Z,6.07
2023-05-13T04:27:06.539Z,6.05
2023-05-13T04:33:49.157Z,6.10
2023-05-13T04:40:31.610Z,5.93
2023-05-13T04:47:19.289Z,6.47
2023-05-13T04:54:01.636Z,6.57
2023-05-13T05:00:44.241Z,6.43
2023-05-13T05:07:26.556Z,6.40
2023-05-13T05:14:08.944Z,6.80
2023-05-13T05:20:51.250Z,6.38
2023-05-13T05:34:18.769Z,6.40
2023-05-13T05:41:01.297Z,4.80
2023-05-13T05:47:44.452Z,4.25
2023-05-13T05:54:28.517Z,3.78
2023-05-13T06:01:11.069Z,3.67
2023-05-13T06:07:53.644Z,4.68
2023-05-13T06:14:35.952Z,4.15
2023-05-13T06:21:18.197Z,3.60
2023-05-13T06:28:06.251Z,3.60
2023-05-13T06:34:48.622Z,4.18
2023-05-13T06:41:31.239Z,3.70
2023-05-13T06:48:24.203Z,5.55
2023-05-13T06:55:07.112Z,4.15
2023-05-13T07:01:49.344Z,4.80
2023-05-13T07:08:31.518Z,3.95
2023-05-13T07:15:13.660Z,3.80
2023-05-13T07:21:55.984Z,3.08
2023-05-13T07:28:38.695Z,3.53
2023-05-13T07:35:21.251Z,3.38
2023-05-13T07:42:04.036Z,3.13
2023-05-13T07:48:46.249Z,2.67
2023-05-13T07:55:28.476Z,2.47
2023-05-13T08:02:11.390Z,2.50
2023-05-13T08:08:53.677Z,2.37
2023-05-13T08:15:37.132Z,2.80
2023-05-13T08:22:19.835Z,2.20
2023-05-13T08:29:02.294Z,2.13
2023-05-13T08:35:44.937Z,1.52
2023-05-13T08:42:32.456Z,2.20
2023-05-13T08:49:14.859Z,2.13
2023-05-13T08:55:57.709Z,1.95
2023-05-13T09:02:41.929Z,1.45
2023-05-13T09:09:24.802Z,1.70
2023-05-13T09:16:07.342Z,1.52
2023-05-13T09:22:52.457Z,1.70
2023-05-13T09:29:34.874Z,1.40
2023-05-13T09:36:17.241Z,1.70
2023-05-13T09:42:59.480Z,1.97
2023-05-13T09:49:43.516Z,1.43
2023-05-13T09:56:30.975Z,1.30
2023-05-13T10:03:15.197Z,1.33
2023-05-13T10:10:04.405Z,1.50
2023-05-13T10:16:48.031Z,2.22
2023-05-13T10:23:32.581Z,1.45
2023-05-13T10:30:17.497Z,1.10
2023-05-13T10:37:15.700Z,1.92
2023-05-13T10:43:59.462Z,1.52
2023-05-13T10:51:01.563Z,2.38
2023-05-13T10:58:12.084Z,1.70
2023-05-13T11:05:01.225Z,1.90
2023-05-13T11:11:48.865Z,1.70
2023-05-13T11:18:31.606Z,1.77
2023-05-13T11:25:14.048Z,2.30
2023-05-13T11:32:00.484Z,1.70
2023-05-13T11:38:43.243Z,2.35
2023-05-13T11:45:27.744Z,1.92
2023-05-13T11:52:15.257Z,1.75
2023-05-13T11:59:14.802Z,2.35
2023-05-13T12:06:05.483Z,1.85
2023-05-13T12:12:47.982Z,1.70
2023-05-13T12:19:30.324Z,1.80
2023-05-13T12:26:12.568Z,1.90
2023-05-13T12:32:59.215Z,1.52
2023-05-13T12:39:43.214Z,1.70
2023-05-13T12:46:25.771Z,2.15
2023-05-13T12:53:08.077Z,1.52
2023-05-13T12:59:50.368Z,1.90
2023-05-13T13:06:32.718Z,1.98
2023-05-13T13:13:14.903Z,2.80
2023-05-13T13:19:57.468Z,1.90
2023-05-13T13:33:22.436Z,2.38
2023-05-13T13:40:05.505Z,3.70
2023-05-13T13:46:47.747Z,5.03
2023-05-13T13:53:29.989Z,2.35
2023-05-13T14:00:14.451Z,3.22
2023-05-13T14:06:57.875Z,4.32
2023-05-13T14:13:40.606Z,2.42
2023-05-13T14:20:24.923Z,2.10
2023-05-13T14:27:07.383Z,2.25
2023-05-13T14:33:50.353Z,2.20
2023-05-13T14:40:34.437Z,2.10
2023-05-13T14:47:16.727Z,1.80
2023-05-13T14:53:58.916Z,1.60
2023-05-13T15:00:41.693Z,1.90
2023-05-13T15:07:24.014Z,1.35
2023-05-13T15:14:06.257Z,2.00
2023-05-13T15:20:48.412Z,1.40
2023-05-13T15:27:30.576Z,2.00
2023-05-13T15:34:12.902Z,1.90
2023-05-13T15:40:55.138Z,1.93
2023-05-13T15:47:37.748Z,2.05
2023-05-13T15:54:20.094Z,1.92
2023-05-13T16:01:02.333Z,2.10
2023-05-13T16:07:44.723Z,2.03
2023-05-13T16:14:27.431Z,2.20
2023-05-13T16:21:09.627Z,2.53
2023-05-13T16:27:51.897Z,2.73
2023-05-13T16:34:34.263Z,1.70
2023-05-13T16:41:16.422Z,1.48
2023-05-13T16:47:58.665Z,2.78
2023-05-13T16:54:41.014Z,2.43
2023-05-13T17:01:23.471Z,2.23
2023-05-13T17:08:05.932Z,1.90
2023-05-13T17:14:48.162Z,2.37
2023-05-13T17:21:30.335Z,1.83
2023-05-13T17:28:12.593Z,3.97
2023-05-13T17:34:54.932Z,2.50
2023-05-13T17:41:37.110Z,1.67
2023-05-13T17:48:19.416Z,1.50
2023-05-13T17:55:01.759Z,1.70
2023-05-13T18:01:43.977Z,1.70
2023-05-13T18:08:26.357Z,1.27
2023-05-13T18:15:08.845Z,1.80
2023-05-13T18:21:51.036Z,1.63
2023-05-13T18:28:33.201Z,1.10
2023-05-13T18:35:16.121Z,0.95
2023-05-13T18:41:58.276Z,0.98
2023-05-13T18:48:40.611Z,1.08
2023-05-13T18:55:22.813Z,1.35
2023-05-13T19:02:05.531Z,2.40
2023-05-13T19:08:47.843Z,8.90
2023-05-13T19:15:30.013Z,10.15
2023-05-13T19:22:12.816Z,6.32
2023-05-13T19:28:55.018Z,2.42
2023-05-13T19:35:37.618Z,2.28
2023-05-13T19:42:20.412Z,2.10
2023-05-13T19:49:02.613Z,2.40
2023-05-13T19:55:45.368Z,2.90
2023-05-13T20:02:27.936Z,2.88
2023-05-13T20:09:12.015Z,2.70
2023-05-13T20:15:54.249Z,2.53
2023-05-13T20:22:36.525Z,2.13
2023-05-13T20:29:18.722Z,2.03
2023-05-13T20:36:01.957Z,2.65
2023-05-13T20:42:44.244Z,2.22
2023-05-13T20:49:26.900Z,2.55
2023-05-13T20:56:10.146Z,2.60
2023-05-13T21:02:53.266Z,2.63
2023-05-13T21:09:35.409Z,3.65
2023-05-13T21:16:17.646Z,3.03
2023-05-13T21:23:01.347Z,2.60
2023-05-13T21:29:43.574Z,4.25
2023-05-13T21:36:25.978Z,2.95
2023-05-13T21:43:08.067Z,2.97
2023-05-13T21:49:50.276Z,2.92
2023-05-13T21:56:32.891Z,3.35
2023-05-13T22:03:15.054Z,3.58
2023-05-13T22:09:57.709Z,4.50
2023-05-13T22:16:40.075Z,5.03
2023-05-13T22:23:22.248Z,4.55
2023-05-13T22:30:05.154Z,3.65
2023-05-13T22:36:47.599Z,5.47
2023-05-13T22:43:29.754Z,4.75
2023-05-13T22:50:12.888Z,4.03
2023-05-13T22:56:55.060Z,4.70
2023-05-13T23:03:37.298Z,4.32
2023-05-13T23:10:19.553Z,4.47
2023-05-13T23:17:01.806Z,3.97
2023-05-13T23:23:43.996Z,4.90
2023-05-13T23:30:26.185Z,4.40
2023-05-13T23:37:08.551Z,4.25
2023-05-13T23:43:50.714Z,4.25
2023-05-13T23:50:33.065Z,4.70
2023-05-13T23:57:15.227Z,4.45
